Terminal Aerodrome Forecast
Issued by NWS Pocatello, ID

Home | Current Version | Previous Version | Text Only | Print | Product List | Glossary On
Versions: 1 2 3 4 5 6 7 8 9 10 11 12 13 14
000
FTUS45 KPIH 220520
TAFBYI
TAF
KBYI 220520Z 2206/2306 19010KT P6SM VCSH SCT060 BKN100
     FM220800 22005KT P6SM FEW060 SCT100 SCT180
     FM222100 29010KT P6SM VCTS FEW050 SCT070CB BKN090
     FM230200 VRB06KT P6SM VCSH SCT050 BKN070 OVC100=

USA.gov is the U.S. government's official web portal to all federal, state and local government web resources and services.